| time (UTC) | temp C | wind direction | speed KPH | gust KPH | rain 1hr cm | rain 24hr cm | rain mn cm | humidity % | barometer mb |
| 20260510045055 | 22 | 133 | 6.4 | 9.7 | 0.00 | 0.00 | 0.00 | 88 | 1011.0 |
| 20260510044555 | 22 | 158 | 3.2 | 8.0 | 0.00 | 0.00 | 0.00 | 87 | 1011.1 |
| 20260510044052 | 22 | 141 | 4.8 | 8.0 | 0.00 | 0.00 | 0.00 | 87 | 1011.1 |
| 20260510043552 | 22 | 124 | 4.8 | 9.7 | 0.00 | 0.00 | 0.00 | 87 | 1011.1 |
| 20260510043057 | 22 | 131 | 4.8 | 9.7 | 0.00 | 0.00 | 0.00 | 87 | 1011.1 |
| 20260510042602 | 22 | 136 | 6.4 | 12.9 | 0.00 | 0.00 | 0.00 | 86 | 1011.1 |
| 20260510042056 | 22 | 133 | 6.4 | 12.9 | 0.00 | 0.00 | 0.00 | 86 | 1011.2 |
| 20260510041634 | 22 | 134 | 8.0 | 11.3 | 0.00 | 0.00 | 0.00 | 86 | 1011.2 |
| 20260510041054 | 22 | 126 | 6.4 | 9.7 | 0.00 | 0.00 | 0.00 | 86 | 1011.1 |
| 20260510040555 | 22 | 141 | 4.8 | 8.0 | 0.00 | 0.00 | 0.00 | 86 | 1011.1 |
| 20260510040053 | 22 | 155 | 6.4 | 8.0 | 0.00 | 0.00 | 0.00 | 85 | 1011.1 |
| 20260510035554 | 22 | 131 | 4.8 | 11.3 | 0.00 | 0.00 | 0.00 | 85 | 1011.0 |
| 20260510035056 | 23 | 143 | 6.4 | 11.3 | 0.00 | 0.00 | 0.00 | 85 | 1010.9 |
| 20260510034601 | 23 | 148 | 8.0 | 11.3 | 0.00 | 0.00 | 0.00 | 84 | 1010.9 |
| 20260510034059 | 23 | 138 | 9.7 | 14.5 | 0.00 | 0.00 | 0.00 | 84 | 1010.8 |
| 20260510033556 | 23 | 114 | 9.7 | 14.5 | 0.00 | 0.00 | 0.00 | 84 | 1010.7 |
| 20260510033111 | 23 | 113 | 8.0 | 14.5 | 0.00 | 0.00 | 0.00 | 84 | 1010.6 |
| 20260510032555 | 23 | 122 | 6.4 | 11.3 | 0.00 | 0.00 | 0.00 | 84 | 1010.7 |
| 20260510032055 | 23 | 86 | 8.0 | 12.9 | 0.00 | 0.00 | 0.00 | 83 | 1010.5 |
| 20260510031603 | 23 | 102 | 8.0 | 12.9 | 0.00 | 0.00 | 0.00 | 84 | 1010.5 |
| 20260510031055 | 23 | 105 | 6.4 | 12.9 | 0.00 | 0.00 | 0.00 | 84 | 1010.6 |
| 20260510030556 | 22 | 94 | 6.4 | 9.7 | 0.00 | 0.00 | 0.00 | 84 | 1010.4 |
| 20260510030057 | 22 | 94 | 4.8 | 8.0 | 0.00 | 0.00 | 0.00 | 85 | 1010.2 |
| 20260510025554 | 22 | 94 | 4.8 | 8.0 | 0.00 | 0.00 | 0.00 | 86 | 1010.1 |
| 20260510025059 | 22 | 90 | 4.8 | 8.0 | 0.00 | 0.00 | 0.00 | 87 | 1010.2 |
| 20260510024609 | 22 | 80 | 4.8 | 8.0 | 0.00 | 0.00 | 0.00 | 87 | 1010.1 |
| 20260510024055 | 22 | 76 | 4.8 | 6.4 | 0.00 | 0.00 | 0.00 | 87 | 1010.1 |
| 20260510023555 | 22 | 77 | 4.8 | 9.7 | 0.00 | 0.00 | 0.00 | 88 | 1010.0 |
| 20260510023100 | 22 | 79 | 4.8 | 9.7 | 0.00 | 0.00 | 0.00 | 87 | 1010.0 |
| 20260510022555 | 22 | 70 | 6.4 | 9.7 | 0.00 | 0.00 | 0.00 | 88 | 1009.9 |
| 20260510022054 | 22 | 62 | 3.2 | 4.8 | 0.00 | 0.00 | 0.00 | 88 | 1009.9 |
| 20260510021553 | 21 | 71 | 0.0 | 0.0 | 0.00 | 0.00 | 0.00 | 88 | 1009.8 |
| 20260510021054 | 21 | 0 | 0.0 | 0.0 | 0.00 | 0.00 | 0.00 | 88 | 1009.7 |
| 20260510020555 | 21 | 0 | 0.0 | 0.0 | 0.00 | 0.00 | 0.00 | 88 | 1009.6 |
| 20260510020055 | 21 | 0 | 0.0 | 0.0 | 0.00 | 0.00 | 0.00 | 91 | 1009.6 |
| 20260510015555 | 21 | 0 | 0.0 | 0.0 | 0.00 | 0.00 | 0.00 | 89 | 1009.4 |
| 20260510015054 | 21 | 0 | 0.0 | 3.2 | 0.00 | 0.00 | 0.00 | 90 | 1009.2 |
| 20260510014613 | 21 | 0 | 0.0 | 3.2 | 0.00 | 0.00 | 0.00 | 90 | 1009.3 |
| 20260510014055 | 21 | 0 | 1.6 | 6.4 | 0.00 | 0.00 | 0.00 | 91 | 1009.2 |
| 20260510013556 | 21 | 356 | 0.0 | 6.4 | 0.00 | 0.00 | 0.00 | 93 | 1009.2 |
| 20260510013104 | 21 | 266 | 3.2 | 6.4 | 0.00 | 0.00 | 0.00 | 95 | 1009.2 |
| 20260510012555 | 21 | 281 | 0.0 | 8.0 | 0.00 | 0.00 | 0.00 | 96 | 1009.1 |
| 20260510012055 | 21 | 77 | 4.8 | 8.0 | 0.00 | 0.00 | 0.00 | 96 | 1009.0 |
| 20260510011554 | 21 | 81 | 6.4 | 8.0 | 0.00 | 0.00 | 0.00 | 96 | 1008.9 |
| 20260510011056 | 20 | 81 | 3.2 | 6.4 | 0.00 | 0.00 | 0.00 | 96 | 1008.8 |
| 20260510010552 | 20 | 65 | 1.6 | 6.4 | 0.00 | 0.00 | 0.00 | 96 | 1008.9 |
| 20260510010055 | 20 | 0 | 1.6 | 6.4 | 0.00 | 0.00 | 0.00 | 96 | 1008.8 |
| 20260510005553 | 21 | 78 | 0.0 | 0.0 | 0.00 | 0.00 | 0.00 | 96 | 1008.8 |
| 20260510005053 | 20 | 0 | 0.0 | 0.0 | 0.00 | 0.00 | 0.00 | 96 | 1008.7 |
| 20260510004603 | 20 | 0 | 0.0 | 0.0 | 0.00 | 0.00 | 0.00 | 96 | 1008.7 |
| 20260510004052 | 20 | 0 | 0.0 | 3.2 | 0.00 | 0.00 | 0.00 | 95 | 1008.8 |
| 20260510003553 | 20 | 0 | 0.0 | 6.4 | 0.00 | 0.00 | 0.00 | 96 | 1008.8 |
| 20260510003054 | 20 | 0 | 1.6 | 12.9 | 0.00 | 0.00 | 0.00 | 96 | 1008.8 |
| 20260510002552 | 20 | 181 | 4.8 | 16.1 | 0.00 | 0.00 | 0.00 | 95 | 1008.8 |
| 20260510002052 | 20 | 203 | 9.7 | 19.3 | 0.00 | 0.00 | 0.00 | 95 | 1008.8 |
| 20260510001555 | 20 | 197 | 9.7 | 19.3 | 0.00 | 0.00 | 0.00 | 95 | 1008.8 |
| 20260510001053 | 20 | 249 | 12.9 | 19.3 | 0.00 | 0.00 | 0.00 | 95 | 1008.9 |
| 20260510000556 | 19 | 214 | 8.0 | 12.9 | 0.00 | 0.00 | 0.00 | 96 | 1009.1 |
| 20260510000058 | 19 | 238 | 1.6 | 9.7 | 0.00 | 0.00 | 0.00 | 96 | 1009.3 |
| 20260509235557 | 19 | 271 | 4.8 | 12.9 | 0.00 | 0.00 | 0.00 | 95 | 1009.4 |
| 20260509235057 | 19 | 288 | 6.4 | 16.1 | 0.00 | 0.00 | 0.00 | 93 | 1009.4 |
| 20260509234553 | 19 | 288 | 4.8 | 16.1 | 0.00 | 0.00 | 0.00 | 92 | 1009.5 |
| 20260509234053 | 20 | 274 | 9.7 | 17.7 | 0.00 | 0.00 | 0.00 | 90 | 1009.4 |
| 20260509233553 | 21 | 291 | 9.7 | 27.4 | 0.00 | 0.00 | 0.00 | 88 | 1009.1 |
| 20260509233054 | 22 | 307 | 14.5 | 41.8 | 0.00 | 0.00 | 0.00 | 84 | 1009.5 |
| 20260509232553 | 23 | 314 | 22.5 | 41.8 | 0.00 | 0.00 | 0.00 | 84 | 1008.8 |
| 20260509232054 | 23 | 341 | 19.3 | 29.0 | 0.00 | 0.00 | 0.00 | 81 | 1008.7 |
| 20260509231608 | 24 | 21 | 19.3 | 25.7 | 0.00 | 0.00 | 0.00 | 80 | 1008.7 |
| 20260509231052 | 25 | 43 | 17.7 | 25.7 | 0.00 | 0.00 | 0.00 | 78 | 1008.9 |
| 20260509230554 | 25 | 51 | 16.1 | 29.0 | 0.00 | 0.00 | 0.00 | 71 | 1008.8 |
| 20260509230057 | 26 | 49 | 16.1 | 29.0 | 0.00 | 0.00 | 0.00 | 69 | 1008.6 |
| 20260509225553 | 27 | 46 | 20.9 | 29.0 | 0.00 | 0.00 | 0.00 | 68 | 1008.8 |
| 20260509225056 | 28 | 53 | 14.5 | 24.1 | 0.00 | 0.00 | 0.00 | 65 | 1008.7 |
| 20260509224558 | 29 | 58 | 16.1 | 24.1 | 0.00 | 0.00 | 0.00 | 62 | 1008.5 |
| 20260509224055 | 31 | 77 | 4.8 | 11.3 | 0.00 | 0.00 | 0.00 | 60 | 1008.4 |
| 20260509223553 | 32 | 132 | 4.8 | 9.7 | 0.00 | 0.00 | 0.00 | 59 | 1008.2 |
| 20260509223104 | 31 | 139 | 1.6 | 8.0 | 0.00 | 0.00 | 0.00 | 58 | 1008.1 |
| 20260509222555 | 31 | 160 | 1.6 | 9.7 | 0.00 | 0.00 | 0.00 | 61 | 1008.2 |
| 20260509222053 | 31 | 138 | 6.4 | 9.7 | 0.00 | 0.00 | 0.00 | 59 | 1008.1 |
| 20260509221558 | 32 | 167 | 4.8 | 8.0 | 0.00 | 0.00 | 0.00 | 60 | 1007.9 |
| 20260509221055 | 32 | 113 | 4.8 | 8.0 | 0.00 | 0.00 | 0.00 | 57 | 1008.0 |
| 20260509220555 | 32 | 152 | 4.8 | 8.0 | 0.00 | 0.00 | 0.00 | 56 | 1007.9 |
| 20260509220053 | 32 | 141 | 3.2 | 8.0 | 0.00 | 0.00 | 0.00 | 54 | 1007.9 |
| 20260509215559 | 32 | 148 | 3.2 | 11.3 | 0.00 | 0.00 | 0.00 | 58 | 1008.1 |
| 20260509215054 | 32 | 185 | 4.8 | 11.3 | 0.00 | 0.00 | 0.00 | 57 | 1008.2 |
| 20260509214555 | 32 | 150 | 4.8 | 11.3 | 0.00 | 0.00 | 0.00 | 57 | 1008.1 |
| 20260509214055 | 32 | 179 | 4.8 | 9.7 | 0.00 | 0.00 | 0.00 | 58 | 1008.1 |
| 20260509213554 | 32 | 279 | 4.8 | 9.7 | 0.00 | 0.00 | 0.00 | 53 | 1008.2 |
| 20260509213056 | 32 | 212 | 3.2 | 11.3 | 0.00 | 0.00 | 0.00 | 53 | 1008.3 |
| 20260509212555 | 32 | 164 | 1.6 | 11.3 | 0.00 | 0.00 | 0.00 | 57 | 1008.4 |
| 20260509212055 | 32 | 231 | 6.4 | 12.9 | 0.00 | 0.00 | 0.00 | 56 | 1008.3 |
| 20260509211559 | 32 | 200 | 6.4 | 12.9 | 0.00 | 0.00 | 0.00 | 56 | 1008.5 |
| 20260509211055 | 32 | 233 | 1.6 | 9.7 | 0.00 | 0.00 | 0.00 | 63 | 1008.5 |
| 20260509210555 | 31 | 145 | 4.8 | 9.7 | 0.00 | 0.00 | 0.00 | 57 | 1008.5 |
| 20260509210107 | 31 | 205 | 3.2 | 11.3 | 0.00 | 0.00 | 0.00 | 61 | 1008.6 |
| 20260509205555 | 31 | 219 | 3.2 | 11.3 | 0.00 | 0.00 | 0.00 | 61 | 1008.7 |
| 20260509205055 | 31 | 314 | 4.8 | 9.7 | 0.00 | 0.00 | 0.00 | 61 | 1008.7 |
| 20260509204554 | 31 | 309 | 4.8 | 11.3 | 0.00 | 0.00 | 0.00 | 61 | 1008.9 |
| 20260509204054 | 30 | 296 | 4.8 | 14.5 | 0.00 | 0.00 | 0.00 | 61 | 1008.9 |
| 20260509203558 | 30 | 72 | 6.4 | 14.5 | 0.00 | 0.00 | 0.00 | 58 | 1009.0 |
| 20260509203056 | 31 | 309 | 9.7 | 14.5 | 0.00 | 0.00 | 0.00 | 60 | 1009.2 |
| 20260509202558 | 31 | 293 | 1.6 | 8.0 | 0.00 | 0.00 | 0.00 | 62 | 1009.2 |
| 20260509202055 | 31 | 326 | 3.2 | 9.7 | 0.00 | 0.00 | 0.00 | 61 | 1009.3 |
| 20260509201558 | 31 | 298 | 3.2 | 9.7 | 0.00 | 0.00 | 0.00 | 61 | 1009.2 |
| 20260509201055 | 31 | 300 | 1.6 | 8.0 | 0.00 | 0.00 | 0.00 | 59 | 1009.2 |
| 20260509200554 | 31 | 243 | 4.8 | 11.3 | 0.00 | 0.00 | 0.00 | 64 | 1009.1 |
| 20260509200057 | 30 | 267 | 4.8 | 11.3 | 0.00 | 0.00 | 0.00 | 60 | 1009.0 |
| 20260509195556 | 30 | 298 | 3.2 | 8.0 | 0.00 | 0.00 | 0.00 | 62 | 1009.1 |
| 20260509195055 | 30 | 269 | 3.2 | 11.3 | 0.00 | 0.00 | 0.00 | 64 | 1009.2 |
| 20260509194558 | 30 | 277 | 3.2 | 11.3 | 0.00 | 0.00 | 0.00 | 69 | 1009.2 |
| 20260509194055 | 30 | 275 | 4.8 | 12.9 | 0.00 | 0.00 | 0.00 | 66 | 1009.2 |
| 20260509193556 | 30 | 297 | 3.2 | 12.9 | 0.00 | 0.00 | 0.00 | 69 | 1009.2 |
| 20260509193058 | 31 | 309 | 3.2 | 9.7 | 0.00 | 0.00 | 0.00 | 67 | 1009.3 |
| 20260509192558 | 30 | 183 | 4.8 | 9.7 | 0.00 | 0.00 | 0.00 | 66 | 1009.4 |
| 20260509192056 | 30 | 236 | 4.8 | 8.0 | 0.00 | 0.00 | 0.00 | 65 | 1009.4 |
| 20260509191554 | 30 | 267 | 3.2 | 11.3 | 0.00 | 0.00 | 0.00 | 65 | 1009.6 |
| 20260509191054 | 30 | 284 | 6.4 | 11.3 | 0.00 | 0.00 | 0.00 | 65 | 1009.7 |
| 20260509190552 | 30 | 311 | 1.6 | 8.0 | 0.00 | 0.00 | 0.00 | 66 | 1009.7 |
| 20260509190058 | 30 | 205 | 3.2 | 9.7 | 0.00 | 0.00 | 0.00 | 67 | 1009.7 |
| 20260509185553 | 30 | 319 | 4.8 | 9.7 | 0.00 | 0.00 | 0.00 | 65 | 1009.9 |
| 20260509185056 | 30 | 224 | 4.8 | 14.5 | 0.00 | 0.00 | 0.00 | 68 | 1009.9 |
| 20260509184558 | 30 | 148 | 4.8 | 14.5 | 0.00 | 0.00 | 0.00 | 66 | 1010.0 |
| 20260509184055 | 30 | 219 | 6.4 | 14.5 | 0.00 | 0.00 | 0.00 | 70 | 1010.1 |
| 20260509183556 | 30 | 241 | 1.6 | 9.7 | 0.00 | 0.00 | 0.00 | 69 | 1010.2 |
| 20260509183059 | 29 | 263 | 4.8 | 12.9 | 0.00 | 0.00 | 0.00 | 69 | 1010.3 |
| 20260509182552 | 29 | 309 | 4.8 | 12.9 | 0.00 | 0.00 | 0.00 | 69 | 1010.3 |
| 20260509182052 | 29 | 146 | 4.8 | 12.9 | 0.00 | 0.00 | 0.00 | 71 | 1010.4 |
| 20260509181556 | 29 | 179 | 3.2 | 12.9 | 0.00 | 0.00 | 0.00 | 70 | 1010.4 |
| 20260509181053 | 28 | 238 | 4.8 | 12.9 | 0.00 | 0.00 | 0.00 | 74 | 1010.6 |
| 20260509180556 | 28 | 217 | 4.8 | 12.9 | 0.00 | 0.00 | 0.00 | 74 | 1010.7 |
| 20260509180057 | 28 | 159 | 8.0 | 12.9 | 0.00 | 0.00 | 0.00 | 75 | 1010.8 |
| 20260509175557 | 28 | 197 | 3.2 | 11.3 | 0.00 | 0.00 | 0.00 | 78 | 1010.8 |
| 20260509175056 | 28 | 242 | 3.2 | 11.3 | 0.00 | 0.00 | 0.00 | 78 | 1010.8 |
| 20260509174555 | 28 | 221 | 6.4 | 9.7 | 0.00 | 0.00 | 0.00 | 78 | 1010.8 |
| 20260509174053 | 28 | 193 | 3.2 | 11.3 | 0.00 | 0.00 | 0.00 | 77 | 1010.9 |
| 20260509173552 | 28 | 217 | 4.8 | 11.3 | 0.00 | 0.00 | 0.00 | 79 | 1010.9 |
| 20260509173118 | 28 | 188 | 6.4 | 9.7 | 0.00 | 0.00 | 0.00 | 79 | 1011.0 |
| 20260509172556 | 28 | 207 | 4.8 | 6.4 | 0.00 | 0.00 | 0.00 | 79 | 1011.2 |
| 20260509172055 | 27 | 195 | 3.2 | 6.4 | 0.00 | 0.00 | 0.00 | 78 | 1011.3 |
| 20260509171553 | 27 | 124 | 3.2 | 8.0 | 0.00 | 0.00 | 0.00 | 81 | 1011.2 |
| 20260509171055 | 27 | 214 | 4.8 | 9.7 | 0.00 | 0.00 | 0.00 | 79 | 1011.2 |
| 20260509170556 | 27 | 212 | 3.2 | 9.7 | 0.00 | 0.00 | 0.00 | 80 | 1011.3 |
| 20260509170112 | 27 | 232 | 4.8 | 9.7 | 0.00 | 0.00 | 0.00 | 80 | 1011.4 |
| 20260509165556 | 27 | 147 | 3.2 | 6.4 | 0.00 | 0.00 | 0.00 | 79 | 1011.4 |
| 20260509165053 | 27 | 257 | 1.6 | 6.4 | 0.00 | 0.00 | 0.00 | 79 | 1011.4 |
| 20260509164602 | 27 | 223 | 1.6 | 6.4 | 0.00 | 0.00 | 0.00 | 80 | 1011.4 |
| 20260509164053 | 27 | 0 | 0.0 | 6.4 | 0.00 | 0.00 | 0.00 | 81 | 1011.3 |
| 20260509163554 | 27 | 224 | 3.2 | 6.4 | 0.00 | 0.00 | 0.00 | 82 | 1011.3 |
| 20260509163053 | 26 | 171 | 1.6 | 4.8 | 0.00 | 0.00 | 0.00 | 85 | 1011.2 |
| 20260509162553 | 26 | 274 | 1.6 | 4.8 | 0.00 | 0.00 | 0.00 | 84 | 1011.2 |
| 20260509162057 | 26 | 309 | 1.6 | 6.4 | 0.00 | 0.00 | 0.00 | 85 | 1011.1 |
| 20260509161556 | 26 | 308 | 1.6 | 9.7 | 0.00 | 0.00 | 0.00 | 86 | 1011.1 |
| 20260509161052 | 25 | 158 | 4.8 | 9.7 | 0.00 | 0.00 | 0.00 | 88 | 1011.0 |
| 20260509160553 | 25 | 224 | 3.2 | 8.0 | 0.00 | 0.00 | 0.00 | 90 | 1011.0 |
| 20260509160059 | 25 | 227 | 3.2 | 8.0 | 0.00 | 0.00 | 0.00 | 91 | 1010.9 |
| 20260509155552 | 25 | 220 | 0.0 | 6.4 | 0.00 | 0.00 | 0.00 | 93 | 1010.8 |
| 20260509155055 | 24 | 295 | 3.2 | 9.7 | 0.00 | 0.00 | 0.00 | 95 | 1011.0 |
| 20260509154552 | 24 | 262 | 3.2 | 9.7 | 0.00 | 0.00 | 0.00 | 96 | 1010.9 |
| 20260509154056 | 24 | 338 | 6.4 | 9.7 | 0.00 | 0.00 | 0.00 | 97 | 1011.0 |
| 20260509153556 | 24 | 321 | 4.8 | 9.7 | 0.00 | 0.00 | 0.00 | 97 | 1011.1 |
| 20260509153054 | 23 | 333 | 6.4 | 9.7 | 0.00 | 0.00 | 0.00 | 97 | 1011.1 |
| 20260509152552 | 23 | 324 | 6.4 | 9.7 | 0.00 | 0.00 | 0.00 | 97 | 1011.2 |
| 20260509152056 | 23 | 307 | 4.8 | 8.0 | 0.00 | 0.00 | 0.00 | 97 | 1011.2 |
| 20260509151616 | 23 | 299 | 4.8 | 8.0 | 0.00 | 0.00 | 0.00 | 97 | 1011.3 |
| 20260509151056 | 23 | 280 | 4.8 | 8.0 | 0.00 | 0.00 | 0.00 | 97 | 1011.3 |
| 20260509150556 | 23 | 305 | 3.2 | 8.0 | 0.00 | 0.00 | 0.00 | 97 | 1011.2 |
| 20260509150055 | 23 | 0 | 1.6 | 8.0 | 0.00 | 0.00 | 0.00 | 98 | 1011.1 |
| 20260509145553 | 23 | 295 | 4.8 | 8.0 | 0.00 | 0.00 | 0.00 | 97 | 1011.1 |
| 20260509145055 | 23 | 0 | 1.6 | 4.8 | 0.00 | 0.00 | 0.00 | 97 | 1011.0 |
| 20260509144558 | 23 | 0 | 0.0 | 4.8 | 0.00 | 0.00 | 0.00 | 97 | 1010.9 |
| 20260509144054 | 23 | 217 | 3.2 | 4.8 | 0.00 | 0.00 | 0.00 | 97 | 1011.0 |
| 20260509143553 | 23 | 158 | 3.2 | 4.8 | 0.00 | 0.00 | 0.00 | 97 | 1010.7 |
| 20260509143105 | 23 | 134 | 3.2 | 3.2 | 0.00 | 0.00 | 0.00 | 97 | 1010.8 |
| 20260509142556 | 23 | 0 | 0.0 | 0.0 | 0.00 | 0.00 | 0.00 | 98 | 1010.7 |
| 20260509142054 | 23 | 0 | 0.0 | 0.0 | 0.00 | 0.00 | 0.00 | 98 | 1010.6 |
| 20260509141554 | 23 | 0 | 0.0 | 0.0 | 0.00 | 0.00 | 0.00 | 98 | 1010.6 |
| 20260509141053 | 23 | 0 | 0.0 | 8.0 | 0.00 | 0.00 | 0.00 | 98 | 1010.5 |
| 20260509140556 | 23 | 0 | 3.2 | 8.0 | 0.00 | 0.00 | 0.00 | 98 | 1010.2 |
| 20260509140053 | 23 | 115 | 3.2 | 4.8 | 0.00 | 0.00 | 0.00 | 98 | 1009.8 |
| 20260509135556 | 23 | 128 | 3.2 | 4.8 | 0.00 | 0.00 | 0.00 | 98 | 1009.8 |
| 20260509135058 | 22 | 115 | 3.2 | 9.7 | 0.00 | 0.00 | 0.00 | 98 | 1009.9 |
| 20260509134555 | 22 | 139 | 3.2 | 12.9 | 0.00 | 0.00 | 0.00 | 98 | 1010.0 |
| 20260509134054 | 22 | 146 | 8.0 | 12.9 | 0.00 | 0.00 | 0.00 | 98 | 1010.1 |
| 20260509133553 | 22 | 164 | 9.7 | 16.1 | 0.00 | 0.00 | 0.00 | 98 | 1010.3 |
| 20260509133058 | 23 | 195 | 9.7 | 16.1 | 0.00 | 0.00 | 0.00 | 98 | 1010.7 |
| 20260509132553 | 23 | 197 | 11.3 | 16.1 | 0.00 | 0.00 | 0.00 | 98 | 1010.8 |
| 20260509132052 | 23 | 174 | 9.7 | 16.1 | 0.00 | 0.00 | 0.00 | 98 | 1010.7 |
| 20260509131604 | 23 | 191 | 11.3 | 16.1 | 0.00 | 0.00 | 0.00 | 98 | 1011.1 |
| 20260509131052 | 22 | 165 | 9.7 | 16.1 | 0.00 | 0.00 | 0.00 | 98 | 1011.1 |
| 20260509130555 | 22 | 162 | 11.3 | 16.1 | 0.00 | 0.00 | 0.00 | 98 | 1010.9 |
| 20260509130126 | 22 | 149 | 9.7 | 16.1 | 0.00 | 0.00 | 0.00 | 98 | 1010.6 |
| 20260509125556 | 22 | 151 | 8.0 | 11.3 | 0.00 | 0.00 | 0.00 | 98 | 1010.7 |
| 20260509125052 | 22 | 167 | 8.0 | 9.7 | 0.00 | 0.00 | 0.00 | 98 | 1010.8 |
| 20260509124553 | 22 | 150 | 6.4 | 8.0 | 0.00 | 0.00 | 0.00 | 98 | 1010.9 |
| 20260509124055 | 22 | 160 | 1.6 | 4.8 | 0.00 | 0.00 | 0.00 | 98 | 1011.2 |
| 20260509123557 | 22 | 0 | 0.0 | 4.8 | 0.00 | 0.00 | 0.00 | 98 | 1011.4 |
| 20260509123119 | 22 | 83 | 3.2 | 4.8 | 0.00 | 0.00 | 0.00 | 98 | 1011.3 |
| 20260509122556 | 22 | 53 | 0.0 | 4.8 | 0.00 | 0.00 | 0.00 | 98 | 1011.3 |
| 20260509122055 | 22 | 72 | 3.2 | 4.8 | 0.00 | 0.00 | 0.00 | 98 | 1011.3 |
| 20260509121554 | 22 | 58 | 3.2 | 6.4 | 0.00 | 0.00 | 0.00 | 97 | 1011.1 |
| 20260509121056 | 22 | 41 | 4.8 | 6.4 | 0.00 | 0.00 | 0.00 | 97 | 1011.2 |
| 20260509120556 | 22 | 39 | 3.2 | 4.8 | 0.00 | 0.00 | 0.00 | 97 | 1011.1 |
| 20260509120056 | 22 | 0 | 0.0 | 1.6 | 0.00 | 0.00 | 0.00 | 97 | 1011.1 |
| 20260509115556 | 22 | 0 | 0.0 | 8.0 | 0.00 | 0.00 | 0.00 | 97 | 1010.9 |
| 20260509115055 | 22 | 0 | 1.6 | 8.0 | 0.00 | 0.00 | 0.00 | 97 | 1011.0 |
| 20260509114626 | 22 | 51 | 4.8 | 8.0 | 0.00 | 0.00 | 0.00 | 97 | 1010.8 |
| 20260509114055 | 22 | 29 | 4.8 | 8.0 | 0.00 | 0.00 | 0.00 | 97 | 1010.8 |
| 20260509113554 | 22 | 31 | 1.6 | 4.8 | 0.00 | 0.00 | 0.00 | 97 | 1010.5 |
| 20260509113124 | 22 | 0 | 1.6 | 6.4 | 0.00 | 0.00 | 0.00 | 97 | 1010.2 |
| 20260509112600 | 22 | 74 | 4.8 | 6.4 | 0.00 | 0.00 | 0.00 | 97 | 1010.2 |
| 20260509112056 | 22 | 77 | 3.2 | 6.4 | 0.00 | 0.00 | 0.00 | 97 | 1010.4 |
| 20260509111553 | 22 | 53 | 4.8 | 6.4 | 0.00 | 0.00 | 0.00 | 97 | 1010.5 |
| 20260509111055 | 22 | 42 | 1.6 | 4.8 | 0.00 | 0.00 | 0.00 | 97 | 1010.7 |
| 20260509110557 | 22 | 0 | 0.0 | 3.2 | 0.00 | 0.00 | 0.00 | 97 | 1010.7 |
| 20260509110100 | 22 | 108 | 0.0 | 3.2 | 0.00 | 0.00 | 0.00 | 97 | 1010.6 |
| 20260509105555 | 22 | 0 | 0.0 | 3.2 | 0.00 | 0.00 | 0.00 | 97 | 1010.5 |
| 20260509105056 | 22 | 0 | 0.0 | 4.8 | 0.00 | 0.00 | 0.00 | 97 | 1010.4 |
| 20260509104555 | 22 | 0 | 1.6 | 4.8 | 0.00 | 0.00 | 0.00 | 97 | 1010.3 |
| 20260509104056 | 22 | 129 | 0.0 | 4.8 | 0.00 | 0.00 | 0.00 | 97 | 1010.3 |
| 20260509103555 | 22 | 0 | 0.0 | 3.2 | 0.00 | 0.00 | 0.00 | 97 | 1010.6 |
| 20260509103104 | 22 | 0 | 0.0 | 4.8 | 0.00 | 0.00 | 0.00 | 97 | 1010.5 |
| 20260509102555 | 22 | 0 | 1.6 | 4.8 | 0.00 | 0.00 | 0.00 | 97 | 1010.3 |
| 20260509102056 | 22 | 0 | 0.0 | 0.0 | 0.00 | 0.00 | 0.00 | 97 | 1010.1 |
| 20260509101601 | 22 | 0 | 0.0 | 0.0 | 0.00 | 0.00 | 0.00 | 97 | 1010.1 |
| 20260509101055 | 22 | 0 | 0.0 | 3.2 | 0.00 | 0.00 | 0.00 | 97 | 1010.2 |
| 20260509100555 | 22 | 0 | 0.0 | 4.8 | 0.00 | 0.00 | 0.00 | 97 | 1010.2 |
| 20260509100054 | 22 | 38 | 1.6 | 4.8 | 0.00 | 0.00 | 0.00 | 97 | 1010.2 |
| 20260509095555 | 22 | 0 | 1.6 | 4.8 | 0.00 | 0.00 | 0.00 | 97 | 1010.2 |
| 20260509095055 | 22 | 56 | 3.2 | 4.8 | 0.00 | 0.00 | 0.00 | 97 | 1010.1 |
| 20260509094602 | 22 | 60 | 3.2 | 4.8 | 0.00 | 0.00 | 0.00 | 97 | 1009.9 |
| 20260509094058 | 22 | 64 | 0.0 | 4.8 | 0.00 | 0.00 | 0.00 | 97 | 1009.9 |
| 20260509093556 | 22 | 0 | 0.0 | 0.0 | 0.00 | 0.00 | 0.00 | 97 | 1010.1 |
| 20260509093058 | 22 | 0 | 0.0 | 0.0 | 0.00 | 0.00 | 0.00 | 97 | 1010.2 |
| 20260509092555 | 22 | 0 | 0.0 | 0.0 | 0.00 | 0.00 | 0.00 | 97 | 1010.2 |
| 20260509092055 | 22 | 0 | 0.0 | 0.0 | 0.00 | 0.00 | 0.00 | 97 | 1010.2 |
| 20260509091555 | 22 | 0 | 0.0 | 0.0 | 0.00 | 0.00 | 0.00 | 97 | 1010.2 |
| 20260509091055 | 22 | 0 | 0.0 | 0.0 | 0.00 | 0.00 | 0.00 | 97 | 1010.2 |
| 20260509090556 | 22 | 0 | 0.0 | 3.2 | 0.00 | 0.00 | 0.00 | 97 | 1010.1 |
| 20260509090057 | 22 | 0 | 0.0 | 3.2 | 0.00 | 0.00 | 0.00 | 97 | 1009.9 |
| 20260509085555 | 22 | 95 | 0.0 | 6.4 | 0.00 | 0.00 | 0.00 | 97 | 1009.8 |
| 20260509085055 | 22 | 117 | 1.6 | 6.4 | 0.00 | 0.00 | 0.00 | 97 | 1009.8 |
| 20260509084608 | 22 | 112 | 3.2 | 6.4 | 0.00 | 0.00 | 0.00 | 97 | 1009.8 |
| 20260509084055 | 22 | 120 | 3.2 | 6.4 | 0.00 | 0.00 | 0.00 | 97 | 1009.9 |
| 20260509083555 | 22 | 108 | 3.2 | 6.4 | 0.00 | 0.00 | 0.00 | 97 | 1009.9 |
| 20260509083053 | 22 | 135 | 3.2 | 9.7 | 0.00 | 0.00 | 0.00 | 96 | 1009.9 |
| 20260509082555 | 22 | 120 | 4.8 | 9.7 | 0.00 | 0.00 | 0.00 | 96 | 1009.8 |
| 20260509082056 | 22 | 125 | 4.8 | 6.4 | 0.00 | 0.00 | 0.00 | 96 | 1009.9 |
| 20260509081559 | 22 | 139 | 3.2 | 6.4 | 0.00 | 0.00 | 0.00 | 96 | 1010.1 |
| 20260509081056 | 22 | 131 | 3.2 | 9.7 | 0.00 | 0.00 | 0.00 | 96 | 1010.1 |
| 20260509080555 | 22 | 151 | 4.8 | 9.7 | 0.00 | 0.00 | 0.00 | 96 | 1010.2 |
| 20260509080059 | 22 | 166 | 6.4 | 12.9 | 0.00 | 0.00 | 0.00 | 96 | 1010.0 |
| 20260509075555 | 22 | 149 | 8.0 | 12.9 | 0.00 | 0.00 | 0.00 | 96 | 1009.9 |
| 20260509075056 | 22 | 160 | 6.4 | 11.3 | 0.00 | 0.00 | 0.00 | 96 | 1009.9 |
| 20260509074555 | 22 | 156 | 6.4 | 11.3 | 0.00 | 0.00 | 0.00 | 96 | 1010.1 |
| 20260509074055 | 22 | 160 | 4.8 | 8.0 | 0.00 | 0.00 | 0.00 | 96 | 1010.2 |
| 20260509073555 | 22 | 153 | 4.8 | 8.0 | 0.00 | 0.00 | 0.00 | 96 | 1010.2 |
| 20260509073055 | 22 | 166 | 4.8 | 6.4 | 0.00 | 0.00 | 0.00 | 96 | 1010.3 |
| 20260509072555 | 22 | 203 | 4.8 | 6.4 | 0.00 | 0.00 | 0.00 | 96 | 1010.2 |
| 20260509072054 | 22 | 134 | 3.2 | 9.7 | 0.00 | 0.00 | 0.00 | 95 | 1010.1 |
| 20260509071555 | 22 | 150 | 4.8 | 9.7 | 0.00 | 0.00 | 0.00 | 95 | 1010.1 |
| 20260509071056 | 22 | 193 | 6.4 | 9.7 | 0.00 | 0.00 | 0.00 | 95 | 1010.2 |
| 20260509070556 | 22 | 135 | 6.4 | 12.9 | 0.00 | 0.00 | 0.00 | 95 | 1010.2 |
| 20260509070056 | 22 | 190 | 6.4 | 12.9 | 0.00 | 0.00 | 0.00 | 95 | 1010.1 |
| 20260509065555 | 22 | 164 | 6.4 | 12.9 | 0.00 | 0.00 | 0.00 | 95 | 1010.0 |
| 20260509065055 | 22 | 162 | 4.8 | 12.9 | 0.00 | 0.00 | 0.00 | 95 | 1009.9 |
| 20260509064600 | 22 | 156 | 8.0 | 11.3 | 0.00 | 0.00 | 0.00 | 95 | 1009.9 |
| 20260509064055 | 22 | 162 | 8.0 | 11.3 | 0.00 | 0.00 | 0.00 | 95 | 1010.0 |
| 20260509063555 | 22 | 139 | 8.0 | 11.3 | 0.00 | 0.00 | 0.00 | 95 | 1010.1 |
| 20260509063056 | 22 | 145 | 6.4 | 14.5 | 0.00 | 0.00 | 0.00 | 95 | 1010.0 |
| 20260509062559 | 22 | 134 | 8.0 | 17.7 | 0.00 | 0.00 | 0.00 | 95 | 1010.0 |
| 20260509062055 | 22 | 129 | 11.3 | 17.7 | 0.00 | 0.00 | 0.00 | 95 | 1009.9 |
| 20260509061608 | 22 | 148 | 11.3 | 17.7 | 0.00 | 0.00 | 0.00 | 95 | 1009.9 |
| 20260509061052 | 22 | 149 | 9.7 | 17.7 | 0.00 | 0.00 | 0.00 | 95 | 1010.0 |
| 20260509060556 | 22 | 158 | 12.9 | 17.7 | 0.00 | 0.00 | 0.00 | 94 | 1010.2 |
| 20260509060058 | 22 | 152 | 11.3 | 14.5 | 0.00 | 0.00 | 0.00 | 94 | 1010.3 |
| 20260509055553 | 22 | 141 | 11.3 | 14.5 | 0.00 | 0.00 | 0.00 | 94 | 1010.3 |
| 20260509055059 | 22 | 143 | 9.7 | 16.1 | 0.00 | 0.00 | 0.00 | 94 | 1010.4 |
| 20260509054611 | 22 | 158 | 11.3 | 16.1 | 0.00 | 0.00 | 0.00 | 94 | 1010.6 |
| 20260509054055 | 22 | 150 | 9.7 | 14.5 | 0.00 | 0.00 | 0.00 | 94 | 1010.7 |
| 20260509053555 | 22 | 172 | 9.7 | 14.5 | 0.00 | 0.00 | 0.00 | 94 | 1010.7 |
| 20260509053104 | 22 | 163 | 9.7 | 12.9 | 0.00 | 0.00 | 0.00 | 94 | 1010.8 |
| 20260509052555 | 22 | 145 | 8.0 | 12.9 | 0.00 | 0.00 | 0.00 | 94 | 1010.8 |
| 20260509052052 | 22 | 136 | 9.7 | 12.9 | 0.00 | 0.00 | 0.00 | 94 | 1010.8 |
| 20260509051604 | 22 | 142 | 8.0 | 9.7 | 0.00 | 0.00 | 0.00 | 94 | 1010.8 |
| 20260509051055 | 22 | 125 | 6.4 | 11.3 | 0.00 | 0.00 | 0.00 | 94 | 1010.7 |
| 20260509050553 | 22 | 133 | 6.4 | 16.1 | 0.00 | 0.00 | 0.00 | 94 | 1010.7 |
| 20260509050100 | 22 | 138 | 8.0 | 16.1 | 0.00 | 0.00 | 0.00 | 94 | 1010.6 |
| 20260509045552 | 22 | 122 | 6.4 | 12.9 | 0.00 | 0.00 | 0.00 | 94 | 1010.6 |